createdAt,value
2022-12-11T00:00:53.029Z,41.37
2022-12-11T00:03:20.128Z,39.73
2022-12-11T00:05:47.209Z,39.90
2022-12-11T00:08:14.452Z,37.67
2022-12-11T00:10:49.189Z,42.27
2022-12-11T00:13:16.264Z,43.37
2022-12-11T00:15:43.200Z,39.23
2022-12-11T00:18:14.144Z,44.27
2022-12-11T00:20:41.224Z,43.07
2022-12-11T00:23:08.304Z,43.77
2022-12-11T00:25:35.360Z,42.07
2022-12-11T00:28:02.300Z,41.10
2022-12-11T00:30:29.221Z,39.97
2022-12-11T00:32:56.119Z,41.07
2022-12-11T00:35:23.043Z,43.90
2022-12-11T00:37:50.027Z,40.37
2022-12-11T00:40:17.173Z,49.93
2022-12-11T00:42:44.058Z,44.57
2022-12-11T00:45:11.796Z,42.77
2022-12-11T00:47:39.130Z,43.30
2022-12-11T00:50:06.631Z,44.57
2022-12-11T00:52:33.636Z,42.40
2022-12-11T00:55:00.837Z,42.33
2022-12-11T00:57:27.821Z,40.93
2022-12-11T00:59:54.780Z,43.03
2022-12-11T01:02:21.747Z,47.17
2022-12-11T01:04:48.705Z,48.20
2022-12-11T01:07:15.656Z,49.27
2022-12-11T01:10:01.145Z,46.10
2022-12-11T01:12:28.692Z,43.33
2022-12-11T01:14:55.656Z,44.07
2022-12-11T01:17:22.512Z,40.73
2022-12-11T01:19:49.409Z,40.90
2022-12-11T01:22:16.320Z,44.87
2022-12-11T01:24:43.519Z,45.30
2022-12-11T01:27:10.473Z,49.17
2022-12-11T01:29:37.344Z,51.13
2022-12-11T01:32:04.438Z,48.00
2022-12-11T01:34:31.816Z,48.00
2022-12-11T01:36:59.439Z,53.47
2022-12-11T01:39:26.325Z,40.67
2022-12-11T01:42:00.817Z,47.57
2022-12-11T01:44:27.671Z,47.60
2022-12-11T01:46:55.046Z,44.90
2022-12-11T01:49:26.253Z,48.40
2022-12-11T01:51:59.073Z,51.20
2022-12-11T01:54:28.436Z,46.20
2022-12-11T01:56:58.966Z,47.23
2022-12-11T01:59:28.762Z,40.67
2022-12-11T02:02:12.291Z,43.83
2022-12-11T02:04:41.869Z,45.63
2022-12-11T02:07:10.018Z,47.40
2022-12-11T02:09:40.186Z,42.80
2022-12-11T02:12:13.350Z,45.70
2022-12-11T02:15:11.653Z,52.63
2022-12-11T02:18:19.613Z,58.93
2022-12-11T02:20:55.348Z,49.43
2022-12-11T02:23:54.521Z,50.47
2022-12-11T02:26:30.075Z,48.60
2022-12-11T02:29:03.483Z,50.63
2022-12-11T02:31:46.476Z,46.27
2022-12-11T02:34:25.443Z,45.63
2022-12-11T02:36:57.535Z,45.77
2022-12-11T02:39:27.079Z,48.23
2022-12-11T02:41:55.192Z,44.30
2022-12-11T02:44:27.114Z,43.03
2022-12-11T02:46:54.655Z,38.10
2022-12-11T02:49:23.303Z,45.80
2022-12-11T02:51:52.538Z,41.50
2022-12-11T02:54:28.462Z,40.47
2022-12-11T02:56:59.520Z,44.27
2022-12-11T02:59:32.409Z,43.00
2022-12-11T03:01:59.629Z,41.63
2022-12-11T03:04:26.752Z,41.40
2022-12-11T03:06:56.498Z,41.10
2022-12-11T03:09:23.525Z,36.60
2022-12-11T03:11:50.441Z,37.83
2022-12-11T03:14:17.427Z,38.80
2022-12-11T03:17:19.509Z,38.13
2022-12-11T03:20:04.886Z,38.10
2022-12-11T03:22:38.785Z,39.67
2022-12-11T03:25:26.522Z,41.90
2022-12-11T03:27:59.214Z,36.40
2022-12-11T03:30:28.792Z,36.60
2022-12-11T03:33:05.091Z,32.57
2022-12-11T03:35:41.064Z,25.00
2022-12-11T03:38:21.190Z,34.97
2022-12-11T03:40:53.316Z,25.50
2022-12-11T03:43:22.336Z,29.40
2022-12-11T03:45:51.751Z,31.60
2022-12-11T03:48:20.960Z,32.53
2022-12-11T03:50:49.752Z,33.17
2022-12-11T03:53:19.046Z,30.37
2022-12-11T03:55:48.205Z,30.47
2022-12-11T03:58:15.125Z,30.20
2022-12-11T04:00:41.977Z,29.33
2022-12-11T04:03:15.869Z,27.83
2022-12-11T04:05:45.533Z,74.83
2022-12-11T04:08:12.969Z,38.20
2022-12-11T04:10:41.280Z,42.77
2022-12-11T04:13:09.283Z,29.93
2022-12-11T04:15:37.699Z,29.20
2022-12-11T04:18:24.065Z,27.17
2022-12-11T04:21:12.966Z,27.43
2022-12-11T04:23:58.525Z,25.67
2022-12-11T04:26:26.252Z,23.87
2022-12-11T04:28:53.157Z,26.43
2022-12-11T04:31:22.221Z,26.70
2022-12-11T04:33:49.366Z,29.63
2022-12-11T04:36:17.314Z,27.20
2022-12-11T04:38:44.274Z,31.77
2022-12-11T04:41:14.167Z,31.70
2022-12-11T04:43:41.735Z,32.77
2022-12-11T04:46:12.040Z,33.80
2022-12-11T04:48:40.028Z,29.13
2022-12-11T04:51:07.851Z,33.10
2022-12-11T04:53:35.608Z,35.40
2022-12-11T04:56:05.921Z,34.50
2022-12-11T04:58:32.934Z,32.73
2022-12-11T05:01:00.086Z,35.87
2022-12-11T05:03:27.146Z,34.90
2022-12-11T05:05:54.190Z,36.80
2022-12-11T05:08:21.873Z,35.97
2022-12-11T05:10:59.763Z,36.13
2022-12-11T05:13:27.871Z,36.03
2022-12-11T05:15:55.194Z,36.67
2022-12-11T05:18:22.586Z,34.00
2022-12-11T05:21:05.159Z,38.63
2022-12-11T05:23:33.226Z,37.20
2022-12-11T05:26:06.229Z,36.87
2022-12-11T05:28:36.039Z,41.57
2022-12-11T05:31:06.174Z,41.17
2022-12-11T05:33:34.271Z,38.13
2022-12-11T05:36:01.608Z,40.37
2022-12-11T05:38:28.542Z,39.03
2022-12-11T05:41:07.860Z,40.87
2022-12-11T05:43:36.349Z,43.93
2022-12-11T05:46:32.801Z,40.50
2022-12-11T05:49:20.080Z,38.20
2022-12-11T05:52:05.747Z,37.77
2022-12-11T05:54:38.489Z,39.07
2022-12-11T05:57:05.631Z,39.47
2022-12-11T05:59:32.558Z,41.17
2022-12-11T06:01:59.716Z,38.83
2022-12-11T06:04:27.066Z,40.60
2022-12-11T06:06:57.091Z,38.80
2022-12-11T06:09:24.071Z,42.50
2022-12-11T06:11:51.139Z,44.07
2022-12-11T06:14:18.212Z,37.33
2022-12-11T06:16:45.200Z,33.63
2022-12-11T06:19:18.370Z,35.03
2022-12-11T06:21:46.244Z,38.03
2022-12-11T06:24:13.404Z,36.27
2022-12-11T06:26:40.387Z,37.90
2022-12-11T06:29:10.917Z,35.37
2022-12-11T06:31:40.443Z,33.97
2022-12-11T06:34:07.633Z,37.83
2022-12-11T06:36:35.279Z,36.10
2022-12-11T06:39:02.345Z,38.37
2022-12-11T06:41:29.352Z,36.10
2022-12-11T06:43:56.298Z,33.20
2022-12-11T06:46:23.234Z,38.20
2022-12-11T06:48:50.417Z,37.80
2022-12-11T06:51:22.713Z,36.20
2022-12-11T06:53:54.549Z,37.77
2022-12-11T06:56:22.723Z,38.40
2022-12-11T06:58:49.797Z,36.67
2022-12-11T07:01:25.468Z,36.60
2022-12-11T07:03:59.638Z,38.13
2022-12-11T07:06:28.476Z,36.93
2022-12-11T07:08:56.008Z,38.90
2022-12-11T07:11:25.934Z,39.60
2022-12-11T07:13:52.953Z,38.37
2022-12-11T07:16:20.109Z,39.60
2022-12-11T07:18:49.817Z,41.77
2022-12-11T07:21:17.230Z,38.97
2022-12-11T07:23:44.234Z,37.90
2022-12-11T07:26:14.895Z,37.47
2022-12-11T07:28:43.435Z,38.13
2022-12-11T07:31:14.441Z,37.10
2022-12-11T07:33:42.556Z,33.30
2022-12-11T07:36:12.257Z,33.67
2022-12-11T07:38:39.396Z,34.10
2022-12-11T07:41:09.329Z,30.40
2022-12-11T07:43:36.786Z,34.13
2022-12-11T07:46:10.663Z,35.00
2022-12-11T07:48:39.680Z,35.43
2022-12-11T07:51:12.683Z,40.37
2022-12-11T07:53:39.594Z,40.27
2022-12-11T07:56:06.946Z,33.07
2022-12-11T07:58:34.111Z,33.87
2022-12-11T08:01:01.087Z,33.97
2022-12-11T08:03:28.072Z,37.87
2022-12-11T08:05:55.031Z,40.23
2022-12-11T08:08:22.161Z,38.10
2022-12-11T08:10:49.226Z,43.80
2022-12-11T08:13:16.620Z,35.63
2022-12-11T08:15:43.617Z,34.27
2022-12-11T08:18:10.613Z,35.70
2022-12-11T08:20:46.567Z,39.60
2022-12-11T08:23:28.672Z,35.43
2022-12-11T08:25:55.800Z,35.00
2022-12-11T08:28:22.757Z,39.63
2022-12-11T08:30:49.740Z,45.53
2022-12-11T08:33:16.727Z,41.57
2022-12-11T08:35:45.351Z,38.10
2022-12-11T08:38:12.406Z,36.30
2022-12-11T08:40:39.390Z,34.87
2022-12-11T08:43:09.238Z,35.47
2022-12-11T08:45:37.042Z,36.20
2022-12-11T08:48:04.227Z,35.40
2022-12-11T08:50:31.205Z,37.37
2022-12-11T08:52:58.395Z,35.77
2022-12-11T08:55:28.495Z,39.17
2022-12-11T08:57:55.436Z,34.17
2022-12-11T09:00:22.633Z,36.23
2022-12-11T09:02:49.668Z,34.00
2022-12-11T09:05:16.689Z,35.07
2022-12-11T09:07:44.268Z,35.67
2022-12-11T09:10:11.347Z,34.70
2022-12-11T09:12:39.942Z,36.03
2022-12-11T09:15:09.786Z,36.50
2022-12-11T09:17:37.717Z,33.13
2022-12-11T09:20:05.339Z,32.60
2022-12-11T09:22:36.684Z,32.27
2022-12-11T09:25:03.910Z,32.37
2022-12-11T09:27:30.973Z,30.23
2022-12-11T09:30:02.870Z,33.07
2022-12-11T09:32:33.579Z,33.30
2022-12-11T09:35:01.316Z,32.13
2022-12-11T09:37:30.354Z,31.80
2022-12-11T09:40:08.092Z,32.97
2022-12-11T09:43:12.712Z,38.50
2022-12-11T09:45:39.785Z,34.03
2022-12-11T09:48:09.785Z,34.10
2022-12-11T09:50:36.913Z,31.53
2022-12-11T09:53:16.807Z,32.77
2022-12-11T09:55:50.496Z,35.70
2022-12-11T09:58:37.340Z,32.23
2022-12-11T10:01:16.228Z,31.60
2022-12-11T10:03:50.737Z,31.83
2022-12-11T10:06:32.637Z,32.40
2022-12-11T10:09:24.455Z,33.43
2022-12-11T10:12:12.723Z,41.40
2022-12-11T10:15:24.270Z,34.00
2022-12-11T10:17:53.921Z,30.90
2022-12-11T10:20:23.748Z,32.07
2022-12-11T10:22:52.670Z,31.17
2022-12-11T10:25:35.931Z,32.43
2022-12-11T10:28:14.931Z,28.20
2022-12-11T10:30:53.248Z,32.10
2022-12-11T10:33:20.755Z,30.07
2022-12-11T10:35:55.937Z,67.53
2022-12-11T10:38:42.485Z,35.10
2022-12-11T10:41:12.444Z,33.47
2022-12-11T10:43:46.033Z,30.87
2022-12-11T10:46:25.517Z,32.97
2022-12-11T10:48:57.845Z,32.07
2022-12-11T10:51:36.339Z,32.10
2022-12-11T10:54:25.456Z,32.40
2022-12-11T10:56:53.041Z,37.90
2022-12-11T10:59:25.841Z,32.03
2022-12-11T11:01:53.577Z,39.80
2022-12-11T11:04:37.894Z,31.10
2022-12-11T11:07:15.547Z,35.33
2022-12-11T11:09:43.029Z,32.00
2022-12-11T11:12:27.551Z,29.90
2022-12-11T11:15:05.842Z,30.57
2022-12-11T11:17:49.778Z,30.90
2022-12-11T11:20:25.112Z,34.87
2022-12-11T11:22:55.956Z,29.37
2022-12-11T11:25:27.519Z,31.60
2022-12-11T11:28:01.232Z,29.93
2022-12-11T11:30:34.905Z,31.03
2022-12-11T11:33:19.741Z,32.63
2022-12-11T11:36:05.277Z,33.43
2022-12-11T11:38:33.990Z,30.67
2022-12-11T11:41:15.139Z,32.67
2022-12-11T11:44:05.099Z,32.27
2022-12-11T11:46:59.802Z,33.20
2022-12-11T11:49:29.591Z,31.13
2022-12-11T11:52:21.985Z,32.97
2022-12-11T11:55:06.536Z,30.63
2022-12-11T11:57:46.071Z,30.83
2022-12-11T12:00:18.349Z,32.87
2022-12-11T12:02:47.011Z,33.63
2022-12-11T12:05:14.264Z,30.80
2022-12-11T12:08:01.061Z,29.63
2022-12-11T12:10:41.099Z,31.63
2022-12-11T12:13:47.614Z,31.93
2022-12-11T12:16:43.787Z,34.77
2022-12-11T12:19:08.282Z,47.57
2022-12-11T12:21:37.023Z,35.90
2022-12-11T12:24:42.280Z,32.20
2022-12-11T12:27:51.546Z,41.10
2022-12-11T12:30:22.348Z,37.50
2022-12-11T12:32:59.532Z,37.97
2022-12-11T12:35:42.412Z,33.40
2022-12-11T12:38:18.317Z,26.27
2022-12-11T12:41:14.230Z,26.93
2022-12-11T12:44:06.370Z,22.83
2022-12-11T12:46:45.641Z,20.20
2022-12-11T12:49:27.773Z,19.80
2022-12-11T12:51:55.854Z,21.43
2022-12-11T12:54:25.198Z,20.33
2022-12-11T12:56:52.317Z,19.20
2022-12-11T12:59:25.024Z,19.50
2022-12-11T13:01:57.079Z,18.97
2022-12-11T13:04:59.420Z,22.13
2022-12-11T13:07:30.174Z,18.03
2022-12-11T13:10:07.436Z,33.07
2022-12-11T13:12:45.451Z,19.63
2022-12-11T13:15:30.485Z,18.77
2022-12-11T13:17:58.428Z,18.73
2022-12-11T13:20:28.349Z,31.53
2022-12-11T13:23:09.973Z,23.67
2022-12-11T13:25:49.684Z,18.00
2022-12-11T13:28:46.833Z,20.23
2022-12-11T13:31:16.908Z,16.53
2022-12-11T13:33:51.930Z,17.87
2022-12-11T13:36:24.065Z,18.93
2022-12-11T13:38:56.634Z,21.07
2022-12-11T13:41:24.529Z,18.23
2022-12-11T13:43:53.571Z,20.57
2022-12-11T13:46:29.316Z,17.63
2022-12-11T13:49:00.978Z,20.57
2022-12-11T13:51:31.348Z,18.23
2022-12-11T13:54:19.092Z,17.67
2022-12-11T13:56:55.946Z,17.23
2022-12-11T13:59:29.746Z,17.60
2022-12-11T14:02:00.385Z,17.83
2022-12-11T14:04:28.374Z,23.73
2022-12-11T14:06:57.102Z,16.87
2022-12-11T14:09:26.789Z,25.83
2022-12-11T14:11:57.338Z,16.97
2022-12-11T14:14:45.360Z,19.07
2022-12-11T14:17:28.293Z,17.23
2022-12-11T14:19:58.025Z,18.10
2022-12-11T14:22:27.568Z,20.73
2022-12-11T14:25:02.713Z,18.33
2022-12-11T14:27:30.315Z,16.80
2022-12-11T14:29:57.323Z,17.83
2022-12-11T14:32:38.509Z,20.50
2022-12-11T14:35:12.014Z,17.30
2022-12-11T14:37:39.664Z,15.83
2022-12-11T14:40:16.209Z,18.50
2022-12-11T14:43:00.460Z,22.03
2022-12-11T14:45:34.690Z,19.27
2022-12-11T14:48:10.779Z,23.37
2022-12-11T14:50:59.771Z,17.73
2022-12-11T14:53:32.936Z,17.73
2022-12-11T14:56:05.925Z,17.50
2022-12-11T14:58:39.100Z,17.57
2022-12-11T15:01:22.024Z,16.70
2022-12-11T15:03:49.065Z,16.47
2022-12-11T15:06:24.164Z,16.97
2022-12-11T15:08:51.274Z,17.27
2022-12-11T15:11:19.285Z,17.83
2022-12-11T15:13:55.347Z,17.37
2022-12-11T15:16:24.687Z,18.50
2022-12-11T15:18:54.340Z,19.47
2022-12-11T15:21:33.898Z,17.60
2022-12-11T15:24:03.887Z,17.07
2022-12-11T15:26:38.095Z,17.40
2022-12-11T15:29:22.599Z,20.37
2022-12-11T15:32:08.460Z,17.60
2022-12-11T15:34:43.966Z,20.30
2022-12-11T15:37:38.483Z,20.27
2022-12-11T15:40:06.331Z,20.03
2022-12-11T15:42:36.901Z,23.80
2022-12-11T15:45:07.178Z,23.37
2022-12-11T15:47:34.185Z,18.20
2022-12-11T15:50:21.087Z,18.53
2022-12-11T15:52:51.974Z,25.07
2022-12-11T15:55:20.739Z,19.77
2022-12-11T15:58:00.529Z,18.40
2022-12-11T16:00:28.324Z,18.97
2022-12-11T16:02:57.238Z,17.67
2022-12-11T16:05:25.589Z,21.20
2022-12-11T16:07:54.042Z,18.80
2022-12-11T16:10:22.749Z,17.63
2022-12-11T16:12:53.379Z,18.00
2022-12-11T16:15:23.831Z,21.53
2022-12-11T16:18:05.777Z,23.33
2022-12-11T16:20:34.609Z,24.17
2022-12-11T16:23:01.620Z,23.50
2022-12-11T16:25:29.359Z,21.17
2022-12-11T16:28:01.222Z,20.13
2022-12-11T16:30:29.339Z,21.30
2022-12-11T16:32:56.552Z,26.30
2022-12-11T16:35:23.742Z,23.40
2022-12-11T16:37:52.333Z,19.30
2022-12-11T16:40:20.620Z,20.13
2022-12-11T16:42:49.291Z,24.27
2022-12-11T16:45:20.062Z,20.57
2022-12-11T16:47:47.261Z,18.47
2022-12-11T16:50:15.707Z,17.47
2022-12-11T16:52:43.526Z,19.43
2022-12-11T16:55:12.093Z,21.97
2022-12-11T16:57:39.661Z,20.47
2022-12-11T17:00:09.116Z,22.03
2022-12-11T17:02:36.845Z,20.67
2022-12-11T17:05:04.399Z,25.07
2022-12-11T17:07:35.013Z,20.83
2022-12-11T17:10:05.475Z,21.03
2022-12-11T17:12:32.417Z,20.17
2022-12-11T17:14:59.374Z,21.00
2022-12-11T17:17:26.299Z,19.30
2022-12-11T17:19:53.326Z,19.80
2022-12-11T17:22:20.263Z,18.37
2022-12-11T17:24:47.244Z,17.73
2022-12-11T17:27:17.062Z,18.47
2022-12-11T17:29:44.032Z,17.47
2022-12-11T17:32:11.167Z,18.27
2022-12-11T17:34:38.828Z,18.83
2022-12-11T17:37:06.376Z,20.53
2022-12-11T17:39:33.675Z,21.00
2022-12-11T17:42:00.995Z,23.67
2022-12-11T17:44:30.620Z,20.50
2022-12-11T17:46:58.676Z,20.77
2022-12-11T17:49:26.056Z,21.50
2022-12-11T17:51:55.256Z,19.97
2022-12-11T17:54:23.631Z,20.03
2022-12-11T17:56:51.123Z,19.00
2022-12-11T17:59:19.430Z,21.40
2022-12-11T18:01:46.546Z,23.13
2022-12-11T18:04:13.789Z,24.33
2022-12-11T18:06:41.127Z,22.40
2022-12-11T18:09:08.351Z,24.67
2022-12-11T18:11:35.390Z,24.10
2022-12-11T18:14:02.414Z,24.87
2022-12-11T18:16:32.590Z,28.77
2022-12-11T18:19:00.140Z,26.17
2022-12-11T18:21:33.177Z,25.97
2022-12-11T18:24:00.940Z,24.80
2022-12-11T18:26:27.917Z,25.30
2022-12-11T18:28:55.129Z,26.77
2022-12-11T18:31:23.475Z,26.27
2022-12-11T18:33:51.158Z,26.30
2022-12-11T18:36:20.011Z,27.20
2022-12-11T18:38:47.991Z,27.23
2022-12-11T18:41:17.243Z,26.30
2022-12-11T18:43:44.524Z,25.33
2022-12-11T18:46:15.045Z,22.63
2022-12-11T18:48:43.217Z,24.17
2022-12-11T18:51:17.346Z,25.67
2022-12-11T18:53:45.056Z,25.63
2022-12-11T18:56:14.775Z,24.17
2022-12-11T18:58:42.152Z,23.93
2022-12-11T19:01:24.575Z,24.93
2022-12-11T19:03:58.914Z,24.57
2022-12-11T19:06:30.394Z,25.40
2022-12-11T19:08:58.136Z,25.93
2022-12-11T19:11:27.741Z,25.47
2022-12-11T19:13:59.252Z,25.73
2022-12-11T19:16:33.706Z,25.87
2022-12-11T19:19:12.641Z,27.37
2022-12-11T19:21:40.134Z,27.27
2022-12-11T19:24:08.500Z,27.70
2022-12-11T19:26:36.120Z,27.57
2022-12-11T19:29:04.135Z,29.50
2022-12-11T19:31:32.313Z,29.50
2022-12-11T19:33:59.662Z,28.60
2022-12-11T19:36:28.509Z,31.30
2022-12-11T19:39:01.201Z,30.03
2022-12-11T19:41:30.119Z,29.70
2022-12-11T19:43:58.412Z,33.33
2022-12-11T19:46:26.415Z,37.13
2022-12-11T19:48:54.822Z,80.00
2022-12-11T19:51:24.896Z,37.53
2022-12-11T19:53:52.256Z,32.77
2022-12-11T19:56:20.083Z,31.10
2022-12-11T19:58:47.848Z,33.40
2022-12-11T20:01:19.649Z,32.40
2022-12-11T20:03:46.957Z,31.73
2022-12-11T20:06:13.983Z,29.73
2022-12-11T20:08:45.559Z,31.00
2022-12-11T20:11:17.958Z,30.30
2022-12-11T20:13:47.161Z,32.57
2022-12-11T20:16:15.517Z,29.03
2022-12-11T20:18:42.909Z,28.90
2022-12-11T20:21:13.048Z,30.57
2022-12-11T20:23:42.022Z,29.77
2022-12-11T20:26:13.622Z,30.07
2022-12-11T20:31:37.255Z,32.53
2022-12-11T20:34:05.403Z,33.17
2022-12-11T20:36:32.331Z,32.40
2022-12-11T20:38:59.890Z,33.67
2022-12-11T20:41:27.658Z,35.63
2022-12-11T20:43:55.293Z,31.93
2022-12-11T20:46:25.180Z,34.13
2022-12-11T20:48:53.181Z,33.90
2022-12-11T20:51:25.775Z,34.00
2022-12-11T20:54:01.357Z,34.33
2022-12-11T20:56:31.307Z,36.20
2022-12-11T20:58:59.684Z,35.57
2022-12-11T21:01:28.737Z,35.03
2022-12-11T21:04:01.761Z,34.80
2022-12-11T21:06:34.470Z,35.30
2022-12-11T21:09:08.299Z,36.00
2022-12-11T21:11:51.584Z,37.77
2022-12-11T21:14:22.118Z,34.40
2022-12-11T21:16:49.019Z,36.77
2022-12-11T21:19:17.143Z,36.70
2022-12-11T21:21:45.351Z,35.80
2022-12-11T21:24:22.014Z,36.80
2022-12-11T21:26:50.038Z,35.27
2022-12-11T21:29:19.137Z,34.90
2022-12-11T21:31:46.281Z,37.43
2022-12-11T21:34:14.061Z,36.97
2022-12-11T21:36:41.111Z,36.93
2022-12-11T21:39:08.369Z,36.10
2022-12-11T21:41:35.365Z,36.73
2022-12-11T21:45:14.613Z,37.67
2022-12-11T21:46:49.349Z,37.30
2022-12-11T21:49:16.338Z,37.13
2022-12-11T21:51:47.184Z,38.10
2022-12-11T21:54:18.084Z,36.47
2022-12-11T21:56:46.021Z,36.67
2022-12-11T21:59:13.735Z,38.30
2022-12-11T22:01:45.865Z,36.10
2022-12-11T22:04:14.082Z,37.83
2022-12-11T22:06:47.087Z,37.23
2022-12-11T22:09:15.765Z,36.40
2022-12-11T22:11:43.823Z,38.33
2022-12-11T22:14:13.243Z,36.90
2022-12-11T22:16:40.426Z,38.07
2022-12-11T22:19:07.428Z,39.33
2022-12-11T22:21:34.849Z,38.07
2022-12-11T22:24:02.038Z,38.70
2022-12-11T22:26:29.410Z,38.03
2022-12-11T22:28:57.048Z,38.60
2022-12-11T22:31:26.445Z,40.13
2022-12-11T22:33:55.050Z,37.23
2022-12-11T22:36:26.638Z,37.50
2022-12-11T22:38:53.843Z,38.53
2022-12-11T22:41:29.903Z,36.03
2022-12-11T22:43:57.483Z,35.17
2022-12-11T22:46:27.088Z,36.27
2022-12-11T22:48:54.877Z,36.83
2022-12-11T22:51:22.137Z,36.73
2022-12-11T22:53:49.125Z,37.33
2022-12-11T22:56:16.407Z,37.90
2022-12-11T22:58:43.495Z,38.03
2022-12-11T23:01:13.773Z,35.33
2022-12-11T23:03:41.279Z,37.47
2022-12-11T23:06:11.255Z,36.50
2022-12-11T23:08:39.825Z,36.67
2022-12-11T23:11:31.268Z,36.93
2022-12-11T23:13:58.280Z,34.83
2022-12-11T23:16:27.938Z,34.00
2022-12-11T23:18:56.907Z,35.97
2022-12-11T23:21:25.592Z,36.00
2022-12-11T23:23:53.187Z,33.93
2022-12-11T23:26:21.423Z,35.70
2022-12-11T23:28:49.456Z,36.00
2022-12-11T23:31:17.752Z,35.57
2022-12-11T23:33:45.206Z,37.10
2022-12-11T23:36:16.154Z,34.57
2022-12-11T23:38:43.321Z,35.83
2022-12-11T23:41:13.816Z,36.83
2022-12-11T23:43:41.615Z,36.97
2022-12-11T23:46:12.979Z,36.20
2022-12-11T23:48:40.249Z,35.60
2022-12-11T23:51:08.275Z,37.03
2022-12-11T23:53:35.734Z,37.77
2022-12-11T23:56:08.487Z,36.17
2022-12-11T23:58:37.329Z,35.60
